createdAt,value
2022-11-16T00:00:10.858Z,47.50
2022-11-16T00:03:04.072Z,47.30
2022-11-16T00:05:32.730Z,46.00
2022-11-16T00:08:03.519Z,48.40
2022-11-16T00:10:32.071Z,46.40
2022-11-16T00:13:00.667Z,44.70
2022-11-16T00:15:29.341Z,48.70
2022-11-16T00:17:57.837Z,46.40
2022-11-16T00:20:26.462Z,53.10
2022-11-16T00:22:55.025Z,52.00
2022-11-16T00:25:23.621Z,51.60
2022-11-16T00:27:52.259Z,51.60
2022-11-16T00:30:20.903Z,52.10
2022-11-16T00:32:49.463Z,48.20
2022-11-16T00:35:17.928Z,50.10
2022-11-16T00:37:46.383Z,47.00
2022-11-16T00:40:16.302Z,52.00
2022-11-16T00:42:45.062Z,52.90
2022-11-16T00:45:13.928Z,53.20
2022-11-16T00:47:43.009Z,47.40
2022-11-16T00:50:11.509Z,43.00
2022-11-16T00:52:40.074Z,47.70
2022-11-16T00:55:10.042Z,45.20
2022-11-16T00:57:38.603Z,48.50
2022-11-16T01:00:09.310Z,48.70
2022-11-16T01:02:38.046Z,51.20
2022-11-16T01:05:09.655Z,43.80
2022-11-16T01:07:40.288Z,53.20
2022-11-16T01:10:13.204Z,45.00
2022-11-16T01:12:47.010Z,46.40
2022-11-16T01:15:19.093Z,49.90
2022-11-16T01:17:47.928Z,43.00
2022-11-16T01:20:20.146Z,47.10
2022-11-16T01:22:49.018Z,46.90
2022-11-16T01:25:17.883Z,51.40
2022-11-16T01:27:46.992Z,40.30
2022-11-16T01:30:22.075Z,50.20
2022-11-16T01:33:06.415Z,52.80
2022-11-16T01:35:35.551Z,54.30
2022-11-16T01:38:05.210Z,52.40
2022-11-16T01:40:36.680Z,50.40
2022-11-16T01:43:22.123Z,41.50
2022-11-16T01:45:51.588Z,55.20
2022-11-16T01:48:26.320Z,48.80
2022-11-16T01:50:57.488Z,33.50
2022-11-16T01:53:26.296Z,48.60
2022-11-16T01:55:57.649Z,41.00
2022-11-16T01:58:35.841Z,50.00
2022-11-16T02:01:15.148Z,32.90
2022-11-16T02:03:52.227Z,37.40
2022-11-16T02:06:50.058Z,35.20
2022-11-16T02:09:55.931Z,43.10
2022-11-16T02:13:12.992Z,51.70
2022-11-16T02:15:55.978Z,53.40
2022-11-16T02:19:00.137Z,55.90
2022-11-16T02:22:19.026Z,58.00
2022-11-16T02:25:39.272Z,49.50
2022-11-16T02:28:44.742Z,51.80
2022-11-16T02:31:19.765Z,54.80
2022-11-16T02:33:50.690Z,54.90
2022-11-16T02:36:23.955Z,48.30
2022-11-16T02:39:10.736Z,57.10
2022-11-16T02:41:43.072Z,54.50
2022-11-16T02:44:24.230Z,53.70
2022-11-16T02:47:00.352Z,53.60
2022-11-16T02:49:33.225Z,40.90
2022-11-16T02:52:02.715Z,53.40
2022-11-16T02:54:31.756Z,52.20
2022-11-16T02:57:03.543Z,41.90
2022-11-16T02:59:47.369Z,37.10
2022-11-16T03:02:34.237Z,37.10
2022-11-16T03:05:10.441Z,44.70
2022-11-16T03:07:59.634Z,45.50
2022-11-16T03:10:48.261Z,51.50
2022-11-16T03:13:18.951Z,44.20
2022-11-16T03:15:50.240Z,44.20
2022-11-16T03:18:21.053Z,54.10
2022-11-16T03:20:57.150Z,43.80
2022-11-16T03:23:28.015Z,40.10
2022-11-16T03:25:58.455Z,42.50
2022-11-16T03:28:41.686Z,49.10
2022-11-16T03:31:27.174Z,52.20
2022-11-16T03:34:04.064Z,56.60
2022-11-16T03:36:40.827Z,59.40
2022-11-16T03:39:17.707Z,58.60
2022-11-16T03:41:50.157Z,56.80
2022-11-16T03:44:21.487Z,39.50
2022-11-16T03:46:50.365Z,47.00
2022-11-16T03:49:22.833Z,45.40
2022-11-16T03:51:53.613Z,44.00
2022-11-16T03:54:22.477Z,40.00
2022-11-16T03:56:51.288Z,46.50
2022-11-16T03:59:20.062Z,51.60
2022-11-16T04:01:48.885Z,41.90
2022-11-16T04:04:35.957Z,61.40
2022-11-16T04:07:23.917Z,56.50
2022-11-16T04:10:11.076Z,56.40
2022-11-16T04:13:02.866Z,38.40
2022-11-16T04:15:50.515Z,43.50
2022-11-16T04:18:37.517Z,38.60
2022-11-16T04:21:28.201Z,39.90
2022-11-16T04:24:12.357Z,40.90
2022-11-16T04:27:08.395Z,43.90
2022-11-16T04:29:38.171Z,43.70
2022-11-16T04:32:28.025Z,50.30
2022-11-16T04:35:15.851Z,45.10
2022-11-16T04:37:53.115Z,45.50
2022-11-16T04:40:29.746Z,44.90
2022-11-16T04:43:04.780Z,66.30
2022-11-16T04:45:58.114Z,57.50
2022-11-16T04:48:36.503Z,57.50
2022-11-16T04:51:05.858Z,47.20
2022-11-16T04:53:34.955Z,53.80
2022-11-16T04:56:09.650Z,45.30
2022-11-16T04:58:39.458Z,38.80
2022-11-16T05:01:08.339Z,45.50
2022-11-16T05:03:37.775Z,51.30
2022-11-16T05:06:07.280Z,46.90
2022-11-16T05:08:36.510Z,55.20
2022-11-16T05:11:06.101Z,54.50
2022-11-16T05:13:38.311Z,42.30
2022-11-16T05:16:09.653Z,56.10
2022-11-16T05:18:39.332Z,59.50
2022-11-16T05:21:11.529Z,40.40
2022-11-16T05:23:58.839Z,53.10
2022-11-16T05:26:30.973Z,56.00
2022-11-16T05:28:59.645Z,48.20
2022-11-16T05:31:28.422Z,56.60
2022-11-16T05:33:57.340Z,43.40
2022-11-16T05:36:26.238Z,51.20
2022-11-16T05:38:56.342Z,53.80
2022-11-16T05:41:27.788Z,44.10
2022-11-16T05:43:56.582Z,47.40
2022-11-16T05:46:26.100Z,57.70
2022-11-16T05:48:55.704Z,49.70
2022-11-16T05:51:24.577Z,50.60
2022-11-16T05:53:53.979Z,42.00
2022-11-16T05:56:24.606Z,48.80
2022-11-16T05:58:54.875Z,52.90
2022-11-16T06:01:25.217Z,56.60
2022-11-16T06:03:54.333Z,57.50
2022-11-16T06:06:23.137Z,54.10
2022-11-16T06:08:52.462Z,65.40
2022-11-16T06:14:02.096Z,50.40
2022-11-16T06:16:31.186Z,71.30
2022-11-16T06:19:01.057Z,62.20
2022-11-16T06:21:30.631Z,65.80
2022-11-16T06:24:00.256Z,62.50
2022-11-16T06:26:30.361Z,50.10
2022-11-16T06:29:18.341Z,41.10
2022-11-16T06:31:47.380Z,58.70
2022-11-16T06:34:16.599Z,54.20
2022-11-16T06:36:45.617Z,53.20
2022-11-16T06:39:15.130Z,52.00
2022-11-16T06:41:44.142Z,61.90
2022-11-16T06:44:13.185Z,65.40
2022-11-16T06:46:47.881Z,54.00
2022-11-16T06:49:16.779Z,53.80
2022-11-16T06:51:46.110Z,60.10
2022-11-16T06:54:15.232Z,69.70
2022-11-16T06:56:45.176Z,52.50
2022-11-16T06:59:14.045Z,59.90
2022-11-16T07:01:43.954Z,67.60
2022-11-16T07:04:14.329Z,53.50
2022-11-16T07:06:45.504Z,71.10
2022-11-16T07:09:15.696Z,64.60
2022-11-16T07:11:45.268Z,76.80
2022-11-16T07:14:15.867Z,63.70
2022-11-16T07:16:45.108Z,60.70
2022-11-16T07:19:14.070Z,77.20
2022-11-16T07:21:43.244Z,61.60
2022-11-16T07:24:15.888Z,65.30
2022-11-16T07:26:44.690Z,64.80
2022-11-16T07:29:17.585Z,63.30
2022-11-16T07:32:03.878Z,77.50
2022-11-16T07:34:52.407Z,72.00
2022-11-16T07:37:21.471Z,77.60
2022-11-16T07:39:50.123Z,82.40
2022-11-16T07:42:19.475Z,83.50
2022-11-16T07:45:43.910Z,71.00
2022-11-16T07:48:12.728Z,67.10
2022-11-16T07:51:24.906Z,75.00
2022-11-16T07:54:15.746Z,63.80
2022-11-16T07:56:44.687Z,64.50
2022-11-16T07:59:13.300Z,68.60
2022-11-16T08:01:47.590Z,58.00
2022-11-16T08:04:17.742Z,65.30
2022-11-16T08:06:47.132Z,70.60
2022-11-16T08:09:15.996Z,77.90
2022-11-16T08:11:44.869Z,70.90
2022-11-16T08:14:16.075Z,64.40
2022-11-16T08:16:44.845Z,60.20
2022-11-16T08:19:15.288Z,85.50
2022-11-16T08:21:45.873Z,62.10
2022-11-16T08:24:14.818Z,61.00
2022-11-16T08:26:44.383Z,74.50
2022-11-16T08:29:15.775Z,67.10
2022-11-16T08:31:49.231Z,67.50
2022-11-16T08:34:20.155Z,67.90
2022-11-16T08:36:52.311Z,75.30
2022-11-16T08:39:24.542Z,62.10
2022-11-16T08:41:53.663Z,65.70
2022-11-16T08:44:22.563Z,56.00
2022-11-16T08:46:54.151Z,58.60
2022-11-16T08:49:49.656Z,60.00
2022-11-16T08:52:20.250Z,70.40
2022-11-16T08:54:49.283Z,63.80
2022-11-16T08:57:18.379Z,63.50
2022-11-16T08:59:48.900Z,61.90
2022-11-16T09:02:25.618Z,71.70
2022-11-16T09:04:55.016Z,66.60
2022-11-16T09:07:23.813Z,66.30
2022-11-16T09:09:52.547Z,58.30
2022-11-16T09:12:21.207Z,74.10
2022-11-16T09:14:51.411Z,73.90
2022-11-16T09:17:23.157Z,54.70
2022-11-16T09:19:52.376Z,67.80
2022-11-16T09:22:21.280Z,53.20
2022-11-16T09:24:50.036Z,58.70
2022-11-16T09:27:19.035Z,61.70
2022-11-16T09:29:47.923Z,50.40
2022-11-16T09:32:16.590Z,55.50
2022-11-16T09:34:45.651Z,67.10
2022-11-16T09:37:15.484Z,67.20
2022-11-16T09:39:44.094Z,70.30
2022-11-16T09:42:38.395Z,71.30
2022-11-16T09:45:39.248Z,75.00
2022-11-16T09:48:13.948Z,67.00
2022-11-16T09:50:45.274Z,70.90
2022-11-16T09:53:36.106Z,68.80
2022-11-16T09:56:39.816Z,66.30
2022-11-16T10:02:02.315Z,61.90
2022-11-16T10:04:56.659Z,67.00
2022-11-16T10:07:37.572Z,64.00
2022-11-16T10:10:16.456Z,66.10
2022-11-16T10:13:20.092Z,59.50
2022-11-16T10:16:12.061Z,63.00
2022-11-16T10:19:11.013Z,67.30
2022-11-16T10:22:02.149Z,59.10
2022-11-16T10:25:22.529Z,74.90
2022-11-16T10:28:18.830Z,66.30
2022-11-16T10:30:58.997Z,47.20
2022-11-16T10:33:35.955Z,63.40
2022-11-16T10:36:13.522Z,66.60
2022-11-16T10:38:44.581Z,70.10
2022-11-16T10:41:42.851Z,50.30
2022-11-16T10:45:08.581Z,56.20
2022-11-16T10:47:51.493Z,63.00
2022-11-16T10:50:46.419Z,58.80
2022-11-16T10:54:00.494Z,57.10
2022-11-16T10:56:40.681Z,52.10
2022-11-16T10:59:20.217Z,57.30
2022-11-16T11:01:53.421Z,61.20
2022-11-16T11:04:31.780Z,59.80
2022-11-16T11:07:30.166Z,56.30
2022-11-16T11:09:59.184Z,59.50
2022-11-16T11:12:40.594Z,55.90
2022-11-16T11:15:12.522Z,63.50
2022-11-16T11:17:45.605Z,56.00
2022-11-16T11:20:17.160Z,73.60
2022-11-16T11:22:59.251Z,64.90
2022-11-16T11:25:37.446Z,76.00
2022-11-16T11:28:34.177Z,65.60
2022-11-16T11:31:26.200Z,74.90
2022-11-16T11:34:30.892Z,66.00
2022-11-16T11:37:03.072Z,67.50
2022-11-16T11:39:37.385Z,68.80
2022-11-16T11:42:15.224Z,52.00
2022-11-16T11:44:50.731Z,73.30
2022-11-16T11:48:35.870Z,53.50
2022-11-16T11:51:30.164Z,54.50
2022-11-16T11:54:02.603Z,46.50
2022-11-16T11:59:05.393Z,56.10
2022-11-16T12:02:04.598Z,65.80
2022-11-16T12:04:58.204Z,53.70
2022-11-16T12:07:57.636Z,57.30
2022-11-16T12:10:52.976Z,63.60
2022-11-16T12:13:51.295Z,62.90
2022-11-16T12:16:54.258Z,52.80
2022-11-16T12:20:06.031Z,48.30
2022-11-16T12:22:45.461Z,48.10
2022-11-16T12:25:51.369Z,59.90
2022-11-16T12:28:46.026Z,60.50
2022-11-16T12:31:24.857Z,66.30
2022-11-16T12:34:33.952Z,64.70
2022-11-16T12:37:15.546Z,49.60
2022-11-16T12:40:23.827Z,64.80
2022-11-16T12:43:04.305Z,55.00
2022-11-16T12:46:10.773Z,55.60
2022-11-16T12:49:44.271Z,55.30
2022-11-16T12:52:39.951Z,56.40
2022-11-16T12:55:28.127Z,59.60
2022-11-16T12:58:06.656Z,57.90
2022-11-16T13:01:37.005Z,54.30
2022-11-16T13:04:16.439Z,56.70
2022-11-16T13:06:58.799Z,66.40
2022-11-16T13:09:34.254Z,59.30
2022-11-16T13:12:14.349Z,69.60
2022-11-16T13:14:54.313Z,62.80
2022-11-16T13:17:28.848Z,72.70
2022-11-16T13:20:48.928Z,67.30
2022-11-16T13:24:07.569Z,58.70
2022-11-16T13:26:46.850Z,70.70
2022-11-16T13:29:43.959Z,72.30
2022-11-16T13:33:04.004Z,62.80
2022-11-16T13:35:38.009Z,71.50
2022-11-16T13:38:13.651Z,76.20
2022-11-16T13:40:42.284Z,69.90
2022-11-16T13:43:10.913Z,65.20
2022-11-16T13:45:49.984Z,84.30
2022-11-16T13:48:34.794Z,67.50
2022-11-16T13:51:08.523Z,80.10
2022-11-16T13:56:52.089Z,84.50
2022-11-16T13:59:30.917Z,90.10
2022-11-16T14:02:22.275Z,93.40
2022-11-16T14:05:12.702Z,81.50
2022-11-16T14:07:45.238Z,91.60
2022-11-16T14:10:36.169Z,84.00
2022-11-16T14:13:26.401Z,73.60
2022-11-16T14:16:19.956Z,72.50
2022-11-16T14:19:02.197Z,86.80
2022-11-16T14:22:23.978Z,81.10
2022-11-16T14:25:02.421Z,85.30
2022-11-16T14:28:06.930Z,80.70
2022-11-16T14:30:59.352Z,67.50
2022-11-16T14:33:37.763Z,74.50
2022-11-16T14:36:10.036Z,74.90
2022-11-16T14:38:42.386Z,80.70
2022-11-16T14:41:22.786Z,68.90
2022-11-16T14:43:55.828Z,73.50
2022-11-16T14:46:35.727Z,76.40
2022-11-16T14:49:05.240Z,68.60
2022-11-16T14:51:44.344Z,80.20
2022-11-16T14:54:42.649Z,97.10
2022-11-16T14:57:21.808Z,100.40
2022-11-16T15:00:18.585Z,96.70
2022-11-16T15:02:54.368Z,84.30
2022-11-16T15:05:33.532Z,80.50
2022-11-16T15:08:08.043Z,79.40
2022-11-16T15:10:37.060Z,76.50
2022-11-16T15:13:06.093Z,82.90
2022-11-16T15:15:34.833Z,87.80
2022-11-16T15:18:03.457Z,68.50
2022-11-16T15:20:39.560Z,88.50
2022-11-16T15:23:15.263Z,76.60
2022-11-16T15:25:56.539Z,81.50
2022-11-16T15:28:28.431Z,86.50
2022-11-16T15:31:06.776Z,88.90
2022-11-16T15:33:43.037Z,68.40
2022-11-16T15:36:39.562Z,82.40
2022-11-16T15:39:24.142Z,92.60
2022-11-16T15:42:00.466Z,81.00
2022-11-16T15:44:33.383Z,96.60
2022-11-16T15:47:03.647Z,84.50
2022-11-16T15:49:37.573Z,102.00
2022-11-16T15:52:06.918Z,128.40
2022-11-16T15:54:54.896Z,142.30
2022-11-16T15:57:25.371Z,109.20
2022-11-16T15:59:57.251Z,104.20
2022-11-16T16:02:30.597Z,112.50
2022-11-16T16:04:59.077Z,109.70
2022-11-16T16:07:44.199Z,108.60
2022-11-16T16:10:18.964Z,98.10
2022-11-16T16:12:56.255Z,82.40
2022-11-16T16:15:37.750Z,86.20
2022-11-16T16:18:37.026Z,92.70
2022-11-16T16:21:05.669Z,104.30
2022-11-16T16:23:45.809Z,110.70
2022-11-16T16:26:16.838Z,114.90
2022-11-16T16:28:49.020Z,131.20
2022-11-16T16:31:19.133Z,128.90
2022-11-16T16:33:47.907Z,134.00
2022-11-16T16:36:17.230Z,119.30
2022-11-16T16:38:45.855Z,143.40
2022-11-16T16:41:24.536Z,121.00
2022-11-16T16:43:53.656Z,110.90
2022-11-16T16:46:23.390Z,104.10
2022-11-16T16:48:55.100Z,109.80
2022-11-16T16:51:24.009Z,113.20
2022-11-16T16:53:52.746Z,112.30
2022-11-16T16:56:21.502Z,134.80
2022-11-16T16:59:17.561Z,150.80
2022-11-16T17:01:47.783Z,154.60
2022-11-16T17:04:17.090Z,151.30
2022-11-16T17:06:49.247Z,155.60
2022-11-16T17:09:17.959Z,155.10
2022-11-16T17:11:49.549Z,157.80
2022-11-16T17:14:19.985Z,143.50
2022-11-16T17:16:48.453Z,148.80
2022-11-16T17:19:19.787Z,176.00
2022-11-16T17:21:51.084Z,170.00
2022-11-16T17:24:20.235Z,155.80
2022-11-16T17:26:48.728Z,137.90
2022-11-16T17:29:20.243Z,130.10
2022-11-16T17:31:49.134Z,120.70
2022-11-16T17:34:18.869Z,132.20
2022-11-16T17:36:48.851Z,118.10
2022-11-16T17:39:18.298Z,122.60
2022-11-16T17:41:50.524Z,132.90
2022-11-16T17:44:22.010Z,121.80
2022-11-16T17:47:37.185Z,135.10
2022-11-16T17:54:19.451Z,119.00
2022-11-16T17:56:49.115Z,115.00
2022-11-16T17:59:19.069Z,117.00
2022-11-16T18:14:01.621Z,108.40
2022-11-16T18:16:34.716Z,109.80
2022-11-16T18:19:07.562Z,125.30
2022-11-16T18:22:01.387Z,132.20
2022-11-16T18:24:30.560Z,126.30
2022-11-16T18:26:59.380Z,123.50
2022-11-16T18:29:30.503Z,132.50
2022-11-16T18:32:01.889Z,127.50
2022-11-16T18:34:30.714Z,131.40
2022-11-16T18:36:59.625Z,133.90
2022-11-16T18:39:56.659Z,133.30
2022-11-16T18:42:32.224Z,133.30
2022-11-16T18:45:11.572Z,139.50
2022-11-16T18:47:41.217Z,130.90
2022-11-16T18:50:18.216Z,137.30
2022-11-16T18:52:50.904Z,144.30
2022-11-16T18:55:24.021Z,135.90
2022-11-16T18:57:53.676Z,134.30
2022-11-16T19:00:49.753Z,139.60
2022-11-16T19:03:18.469Z,143.30
2022-11-16T19:06:07.614Z,140.50
2022-11-16T19:08:42.722Z,143.70
2022-11-16T19:11:17.172Z,153.50
2022-11-16T19:14:06.943Z,133.70
2022-11-16T19:16:50.014Z,122.20
2022-11-16T19:19:22.375Z,130.20
2022-11-16T19:21:52.317Z,140.30
2022-11-16T19:26:40.461Z,165.10
2022-11-16T19:29:09.988Z,141.50
2022-11-16T19:31:38.670Z,126.10
2022-11-16T19:34:13.327Z,139.80
2022-11-16T19:39:35.276Z,107.40
2022-11-16T19:42:04.213Z,115.90
2022-11-16T19:44:33.555Z,140.40
2022-11-16T19:47:03.214Z,140.90
2022-11-16T19:49:35.704Z,173.70
2022-11-16T19:52:05.877Z,134.80
2022-11-16T19:54:34.842Z,117.30
2022-11-16T19:57:04.064Z,141.00
2022-11-16T19:59:33.053Z,137.00
2022-11-16T20:02:02.092Z,131.70
2022-11-16T20:04:34.787Z,149.40
2022-11-16T20:07:03.815Z,128.10
2022-11-16T20:09:32.746Z,135.30
2022-11-16T20:12:01.893Z,142.10
2022-11-16T20:14:30.765Z,135.40
2022-11-16T20:16:59.824Z,118.60
2022-11-16T20:19:28.391Z,127.20
2022-11-16T20:22:01.022Z,117.90
2022-11-16T20:24:29.692Z,126.80
2022-11-16T20:27:01.375Z,109.20
2022-11-16T20:29:29.989Z,122.70
2022-11-16T20:31:58.730Z,104.90
2022-11-16T20:34:27.478Z,128.50
2022-11-16T20:36:56.834Z,109.70
2022-11-16T20:39:28.782Z,115.20
2022-11-16T20:42:03.069Z,107.60
2022-11-16T20:44:32.799Z,115.10
2022-11-16T20:47:02.542Z,110.40
2022-11-16T20:49:31.614Z,107.20
2022-11-16T20:52:00.530Z,106.10
2022-11-16T20:54:33.798Z,97.50
2022-11-16T20:57:04.972Z,125.50
2022-11-16T20:59:35.874Z,107.10
2022-11-16T21:02:04.560Z,128.20
2022-11-16T21:04:33.372Z,101.60
2022-11-16T21:07:02.148Z,114.30
2022-11-16T21:09:50.840Z,115.50
2022-11-16T21:12:42.930Z,142.20
2022-11-16T21:15:12.290Z,92.40
2022-11-16T21:17:42.124Z,108.00
2022-11-16T21:20:26.797Z,95.10
2022-11-16T21:22:56.515Z,87.90
2022-11-16T21:25:25.120Z,100.90
2022-11-16T21:27:54.687Z,90.10
2022-11-16T21:30:23.320Z,95.60
2022-11-16T21:32:52.021Z,95.90
2022-11-16T21:35:21.246Z,115.90
2022-11-16T21:37:49.832Z,90.90
2022-11-16T21:40:21.631Z,95.40
2022-11-16T21:42:52.280Z,96.80
2022-11-16T21:45:20.999Z,89.60
2022-11-16T21:47:50.811Z,91.00
2022-11-16T21:50:34.760Z,110.70
2022-11-16T21:53:04.373Z,89.50
2022-11-16T21:55:33.783Z,102.90
2022-11-16T21:58:05.456Z,92.80
2022-11-16T22:00:34.026Z,117.00
2022-11-16T22:03:02.606Z,89.80
2022-11-16T22:05:50.070Z,110.10
2022-11-16T22:08:18.675Z,98.20
2022-11-16T22:10:53.680Z,91.00
2022-11-16T22:13:22.446Z,107.30
2022-11-16T22:15:51.079Z,107.80
2022-11-16T22:18:19.725Z,97.30
2022-11-16T22:20:49.906Z,95.00
2022-11-16T22:23:23.122Z,93.70
2022-11-16T22:26:15.018Z,87.30
2022-11-16T22:28:43.544Z,95.60
2022-11-16T22:31:14.965Z,81.80
2022-11-16T22:33:43.593Z,78.40
2022-11-16T22:36:13.444Z,84.80
2022-11-16T22:38:42.013Z,97.60
2022-11-16T22:41:10.763Z,94.10
2022-11-16T22:43:39.688Z,86.60
2022-11-16T22:46:09.803Z,87.60
2022-11-16T22:48:53.434Z,91.30
2022-11-16T22:51:30.624Z,79.60
2022-11-16T22:54:05.853Z,86.10
2022-11-16T22:56:34.403Z,93.40
2022-11-16T22:59:03.106Z,85.10
2022-11-16T23:01:32.914Z,77.10
2022-11-16T23:04:01.635Z,54.60
2022-11-16T23:06:30.261Z,60.00
2022-11-16T23:08:59.107Z,44.30
2022-11-16T23:11:46.576Z,73.50
2022-11-16T23:14:36.015Z,60.50
2022-11-16T23:17:05.000Z,52.40
2022-11-16T23:19:53.363Z,59.60
2022-11-16T23:22:40.814Z,43.50
2022-11-16T23:25:30.926Z,80.80
2022-11-16T23:28:07.046Z,55.00
2022-11-16T23:30:37.655Z,76.00
2022-11-16T23:33:06.887Z,66.30
2022-11-16T23:35:35.528Z,69.90
2022-11-16T23:38:07.885Z,56.40
2022-11-16T23:43:35.704Z,78.30
2022-11-16T23:46:05.178Z,61.60
2022-11-16T23:48:33.705Z,58.20
2022-11-16T23:51:02.264Z,57.80
2022-11-16T23:53:30.895Z,61.40
2022-11-16T23:56:05.776Z,70.50
2022-11-16T23:58:35.150Z,63.60
